Time;durP1;ratioP1;P1;durP2;ratioP2;P2;SDS_P1;SDS_P2;PMS_P1;PMS_P2;Temp;Humidity;BMP_temperature;BMP_pressure;BME280_temperature;BME280_humidity;BME280_pressure;Samples;Min_cycle;Max_cycle;Signal;HPM_P1;HPM_P2
2023/10/06 00:01:47;;;;;;;12.78;7.87;;;;;;;11.58;89.74;100817.34;1711425;83;25881;-69
2023/10/06 00:04:18;;;;;;;16.15;7.40;;;;;;;11.60;89.84;100818.41;1711484;83;25853;-69
2023/10/06 00:06:48;;;;;;;13.60;7.50;;;;;;;11.61;89.93;100819.98;1711585;83;25628;-68
2023/10/06 00:09:25;;;;;;;11.12;7.45;;;;;;;11.62;89.79;100820.25;1711558;83;27476;-69
2023/10/06 00:11:46;;;;;;;13.43;7.10;;;;;;;11.60;89.65;100818.41;1711715;83;25569;-69
2023/10/06 00:16:40;;;;;;;12.28;8.05;;;;;;;11.59;89.51;100822.20;1657874;86;25516;-69
2023/10/06 00:19:25;;;;;;;16.37;7.58;;;;;;;11.57;89.59;100824.42;1657992;86;25557;-69
2023/10/06 00:21:45;;;;;;;11.97;6.90;;;;;;;11.55;89.26;100830.70;1655897;86;27551;-69
2023/10/06 00:24:10;;;;;;;16.77;7.45;;;;;;;11.53;89.30;100826.94;1657736;86;25624;-66
2023/10/06 00:26:37;;;;;;;15.05;7.65;;;;;;;11.53;89.38;100831.56;1657865;86;25562;-66
2023/10/06 00:29:17;;;;;;;14.87;7.60;;;;;;;11.50;89.38;100830.80;1657790;86;25517;-66
2023/10/06 00:31:34;;;;;;;13.28;7.28;;;;;;;11.48;89.37;100839.23;1657925;86;25632;-66
2023/10/06 00:34:02;;;;;;;14.58;7.83;;;;;;;11.46;89.36;100837.37;1657759;86;27625;-66
2023/10/06 00:36:30;;;;;;;9.43;7.30;;;;;;;11.45;89.51;100839.83;1657755;86;25532;-66
2023/10/06 00:38:56;;;;;;;15.18;7.55;;;;;;;11.44;89.56;100845.02;1657770;86;25479;-66
2023/10/06 00:41:27;;;;;;;17.65;7.22;;;;;;;11.43;89.66;100844.75;1657756;86;25613;-66
2023/10/06 00:43:54;;;;;;;15.45;7.30;;;;;;;11.44;89.73;100853.66;1657885;85;25763;-66
2023/10/06 00:46:20;;;;;;;11.00;6.70;;;;;;;11.44;89.73;100859.08;1657904;86;27551;-66
2023/10/06 00:48:55;;;;;;;12.07;7.22;;;;;;;11.44;89.79;100864.50;1657832;86;25551;-66
2023/10/06 00:51:28;;;;;;;12.45;6.90;;;;;;;11.45;89.96;100866.91;1657866;86;25619;-66
2023/10/06 00:53:58;;;;;;;12.10;7.47;;;;;;;11.45;89.85;100868.83;1681054;83;25652;-66
2023/10/06 00:56:28;;;;;;;10.72;7.28;;;;;;;11.45;89.90;100870.98;1719339;83;25601;-67
2023/10/06 00:58:56;;;;;;;15.32;6.97;;;;;;;11.45;89.89;100875.04;1719437;83;28326;-67
2023/10/06 01:01:23;;;;;;;13.50;6.50;;;;;;;11.45;89.88;100870.19;1719332;83;25454;-67
2023/10/06 01:04:06;;;;;;;11.50;6.33;;;;;;;11.46;89.79;100875.83;1719324;83;25586;-67
2023/10/06 01:06:35;;;;;;;12.85;7.20;;;;;;;11.47;89.88;100878.80;1718310;83;25646;-67
2023/10/06 01:09:15;;;;;;;9.85;6.22;;;;;;;11.48;89.88;100882.57;1719433;83;25616;-67
2023/10/06 01:11:55;;;;;;;16.70;7.45;;;;;;;11.49;89.91;100888.78;1716548;83;32985;-67
2023/10/06 01:14:27;;;;;;;15.23;6.85;;;;;;;11.51;89.94;100888.75;1682041;84;25642;-67
2023/10/06 01:19:36;;;;;;;12.60;6.28;;;;;;;11.55;89.90;100890.30;1682843;85;25581;-67
2023/10/06 01:22:29;;;;;;;16.82;6.37;;;;;;;11.57;89.92;100901.08;1682524;85;25580;-67
2023/10/06 01:24:39;;;;;;;14.87;6.40;;;;;;;11.58;89.84;100905.41;1679708;84;28221;-67
2023/10/06 01:27:06;;;;;;;16.93;6.33;;;;;;;11.60;89.87;100910.52;1681345;84;25637;-67
2023/10/06 01:29:35;;;;;;;12.73;6.37;;;;;;;11.61;89.70;100910.76;1682736;85;25444;-67
2023/10/06 01:32:06;;;;;;;12.18;6.37;;;;;;;11.62;89.56;100917.00;1682801;85;25634;-67
2023/10/06 01:34:39;;;;;;;11.12;6.00;;;;;;;11.63;89.59;100912.64;1682850;85;25614;-67
2023/10/06 01:37:09;;;;;;;11.28;5.80;;;;;;;11.64;89.50;100918.85;1682893;84;27450;-67
2023/10/06 01:39:40;;;;;;;12.95;5.62;;;;;;;11.64;89.35;100918.85;1682747;85;25613;-67
2023/10/06 01:42:16;;;;;;;12.50;6.20;;;;;;;11.64;89.38;100919.64;1682890;85;25552;-67
2023/10/06 01:44:36;;;;;;;12.88;6.35;;;;;;;11.65;89.31;100915.84;1681883;84;25629;-67
2023/10/06 01:47:08;;;;;;;10.18;6.17;;;;;;;11.65;89.24;100923.17;1682924;84;25588;-67
2023/10/06 01:49:36;;;;;;;13.00;5.63;;;;;;;11.65;89.17;100931.31;1682590;84;27686;-67
2023/10/06 01:52:09;;;;;;;12.95;6.08;;;;;;;11.64;89.09;100933.19;1682992;85;25551;-67
2023/10/06 01:54:35;;;;;;;8.28;5.17;;;;;;;11.64;89.01;100928.33;1682657;84;25464;-67
2023/10/06 01:57:11;;;;;;;11.68;6.35;;;;;;;11.66;89.09;100934.25;1683115;85;34711;-67
2023/10/06 01:59:36;;;;;;;10.32;6.35;;;;;;;11.67;89.02;100938.58;1682992;84;25479;-67
2023/10/06 02:02:04;;;;;;;16.52;6.08;;;;;;;11.67;89.02;100939.38;1683045;85;27507;-67
2023/10/06 02:04:40;;;;;;;12.85;5.78;;;;;;;11.68;88.82;100938.81;1682995;85;25726;-67
2023/10/06 02:07:05;;;;;;;13.08;6.55;;;;;;;11.67;88.76;100936.66;1682776;84;25577;-67
2023/10/06 02:09:32;;;;;;;12.07;6.17;;;;;;;11.69;88.86;100953.98;1683143;84;26046;-67
2023/10/06 02:11:59;;;;;;;12.93;5.62;;;;;;;11.70;88.86;100956.95;1682999;83;25582;-67
2023/10/06 02:14:26;;;;;;;14.13;6.28;;;;;;;11.71;88.81;100948.53;1683090;85;27498;-67
2023/10/06 02:16:55;;;;;;;13.95;6.25;;;;;;;11.73;88.78;100943.60;1683048;85;25798;-67
2023/10/06 02:19:28;;;;;;;15.15;5.92;;;;;;;11.72;88.53;100953.39;1682952;84;25531;-67
2023/10/06 02:21:51;;;;;;;12.93;6.53;;;;;;;11.70;88.35;100948.27;1682213;84;25567;-67
2023/10/06 02:24:20;;;;;;;11.03;5.78;;;;;;;11.69;88.23;100953.42;1683035;84;25400;-67
2023/10/06 02:26:57;;;;;;;13.25;5.50;;;;;;;11.67;88.01;100952.13;1682975;85;27583;-67
2023/10/06 02:29:23;;;;;;;13.18;5.65;;;;;;;11.63;87.79;100951.10;1681835;84;25769;-67
2023/10/06 02:32:01;;;;;;;13.83;5.00;;;;;;;11.60;87.69;100951.16;1683027;85;25395;-66
2023/10/06 02:34:29;;;;;;;11.28;4.95;;;;;;;11.57;87.42;100951.76;1682213;84;25482;-67
2023/10/06 02:36:54;;;;;;;11.22;5.15;;;;;;;11.52;87.15;100952.65;1682241;84;25641;-67
2023/10/06 02:39:21;;;;;;;9.53;5.33;;;;;;;11.46;87.00;100945.73;1682989;85;27562;-67
2023/10/06 02:41:49;;;;;;;9.00;4.95;;;;;;;11.39;86.91;100955.60;1682891;84;25410;-67
2023/10/06 02:44:15;;;;;;;8.80;4.92;;;;;;;11.33;86.69;100953.28;1682959;85;25646;-67
2023/10/06 02:46:46;;;;;;;14.23;5.95;;;;;;;11.28;86.53;100961.49;1682962;84;25568;-68
2023/10/06 02:49:23;;;;;;;12.10;4.47;;;;;;;11.22;86.46;100962.14;1683054;85;25579;-68
2023/10/06 02:51:49;;;;;;;13.60;5.20;;;;;;;11.16;86.33;100961.95;1681828;84;27817;-68
2023/10/06 02:56:50;;;;;;;10.53;5.03;;;;;;;11.05;86.24;100964.04;1682933;85;25431;-68
2023/10/06 02:59:20;;;;;;;9.13;4.30;;;;;;;10.99;86.26;100970.06;1682966;84;26148;-68
2023/10/06 03:01:57;;;;;;;11.08;4.72;;;;;;;10.92;86.19;100966.94;1683107;85;25546;-68
2023/10/06 03:04:28;;;;;;;13.18;4.70;;;;;;;10.87;86.13;100976.48;1682981;85;28045;-67
2023/10/06 03:06:58;;;;;;;11.73;4.67;;;;;;;10.81;86.21;100979.83;1682883;85;26377;-67
2023/10/06 03:09:47;;;;;;;10.70;4.80;;;;;;;10.75;86.50;100978.28;1682629;84;25431;-68
2023/10/06 03:12:26;;;;;;;10.48;4.92;;;;;;;10.69;86.52;100978.09;1683545;83;25840;-67
2023/10/06 03:14:43;;;;;;;11.05;4.90;;;;;;;10.63;86.52;100981.42;1709017;83;25627;-67
2023/10/06 03:17:13;;;;;;;11.00;4.75;;;;;;;10.58;86.32;100983.41;1711624;83;27513;-67
2023/10/06 03:19:40;;;;;;;10.08;4.45;;;;;;;10.55;86.71;100992.10;1687586;83;25509;-67
2023/10/06 03:22:13;;;;;;;11.28;5.10;;;;;;;10.52;86.98;100984.56;1711626;83;25584;-67
2023/10/06 03:24:45;;;;;;;14.68;5.22;;;;;;;10.49;87.31;100983.78;1711555;83;26118;-67
2023/10/06 03:27:14;;;;;;;13.58;5.37;;;;;;;10.47;87.47;100985.42;1711445;83;25402;-67
2023/10/06 03:29:54;;;;;;;12.88;4.87;;;;;;;10.46;87.76;100991.39;1711142;82;27651;-67
2023/10/06 03:32:33;;;;;;;13.32;5.08;;;;;;;10.46;87.93;100989.25;1710787;83;25759;-67
2023/10/06 03:35:17;;;;;;;12.88;4.87;;;;;;;10.46;88.32;100989.25;1711592;83;25361;-68
2023/10/06 03:37:36;;;;;;;11.10;4.83;;;;;;;10.45;88.47;100992.51;1708983;83;25565;-68
2023/10/06 03:40:22;;;;;;;12.63;5.17;;;;;;;10.47;88.69;101001.66;1711587;83;25447;-67
2023/10/06 03:42:40;;;;;;;12.63;4.92;;;;;;;10.49;88.85;100998.66;1709156;83;27476;-67
2023/10/06 03:45:18;;;;;;;10.90;5.12;;;;;;;10.50;89.03;101002.44;1711670;83;25605;-67
2023/10/06 03:47:42;;;;;;;12.20;4.67;;;;;;;10.53;89.16;101000.50;1709985;83;25560;-67
2023/10/06 03:50:13;;;;;;;12.80;4.65;;;;;;;10.55;89.17;101003.72;1711513;83;25518;-67
2023/10/06 03:52:39;;;;;;;11.70;4.62;;;;;;;10.57;89.19;101005.61;1711679;83;25605;-67
2023/10/06 03:55:13;;;;;;;14.68;5.22;;;;;;;10.59;89.10;101001.23;1711554;83;28136;-67
2023/10/06 03:57:38;;;;;;;9.93;5.12;;;;;;;10.60;89.05;101000.94;1711369;83;25814;-67
2023/10/06 04:00:38;;;;;;;9.25;4.30;;;;;;;10.61;88.89;101002.56;1711509;83;25452;-67
2023/10/06 04:03:03;;;;;;;8.90;4.53;;;;;;;10.60;88.70;101005.56;1686646;85;25616;-67
2023/10/06 04:05:29;;;;;;;9.78;4.22;;;;;;;10.59;88.63;101007.99;1706261;84;25654;-67
2023/10/06 04:07:57;;;;;;;7.20;4.12;;;;;;;10.54;88.56;101002.13;1706215;84;27557;-67
2023/10/06 04:10:27;;;;;;;10.18;4.87;;;;;;;10.53;88.48;101003.20;1706167;84;25908;-67
2023/10/06 04:12:54;;;;;;;7.78;4.15;;;;;;;10.51;88.32;101010.02;1706344;84;25591;-67
2023/10/06 04:15:20;;;;;;;10.15;4.95;;;;;;;10.49;88.32;101014.89;1706126;84;25677;-67
2023/10/06 04:17:46;;;;;;;10.40;4.12;;;;;;;10.46;88.23;101019.00;1706177;84;25521;-67
2023/10/06 04:20:17;;;;;;;11.30;4.90;;;;;;;10.42;88.13;101018.77;1706187;84;27591;-68
2023/10/06 04:22:45;;;;;;;10.40;4.28;;;;;;;10.43;88.29;101026.33;1706211;84;34688;-68
2023/10/06 04:25:16;;;;;;;8.98;5.25;;;;;;;10.40;88.49;101023.67;1706213;84;25550;-69
2023/10/06 04:27:42;;;;;;;12.25;5.00;;;;;;;10.41;88.81;101025.27;1706104;84;25661;-69
2023/10/06 04:30:13;;;;;;;13.80;5.00;;;;;;;10.38;88.94;101023.13;1706128;84;25749;-68
2023/10/06 04:32:42;;;;;;;11.15;5.28;;;;;;;10.40;89.03;101026.38;1706133;84;28052;-67
2023/10/06 04:35:19;;;;;;;15.38;6.03;;;;;;;10.41;89.21;101030.67;1706030;84;26106;-67
2023/10/06 04:37:39;;;;;;;16.20;7.47;;;;;;;10.41;89.13;101034.73;1706029;84;25591;-67
2023/10/06 04:40:16;;;;;;;13.70;7.10;;;;;;;10.39;88.94;101025.31;1745483;80;25785;-69
2023/10/06 04:42:38;;;;;;;13.58;6.83;;;;;;;10.37;88.83;101026.13;1787784;80;25602;-68
2023/10/06 04:45:12;;;;;;;12.55;7.47;;;;;;;10.35;88.96;101034.55;1789583;80;27505;-66
2023/10/06 04:47:42;;;;;;;14.75;7.22;;;;;;;10.35;88.97;101037.78;1789449;80;25988;-65
2023/10/06 04:50:12;;;;;;;15.45;7.40;;;;;;;10.32;89.04;101041.89;1788993;78;25510;-66
2023/10/06 04:52:40;;;;;;;13.53;8.00;;;;;;;10.29;88.96;101045.12;1789538;79;26431;-66
2023/10/06 04:55:12;;;;;;;14.15;7.75;;;;;;;10.28;89.14;101047.56;1788455;80;25576;-66
2023/10/06 04:57:42;;;;;;;19.00;8.55;;;;;;;10.27;89.66;101046.77;1789566;80;27496;-66
2023/10/06 05:00:14;;;;;;;24.70;9.93;;;;;;;10.28;89.91;101055.16;1789510;80;25467;-67
2023/10/06 05:02:44;;;;;;;17.32;9.55;;;;;;;10.28;90.26;101050.27;1789601;80;25598;-67
2023/10/06 05:05:16;;;;;;;20.45;10.32;;;;;;;10.29;90.38;101049.19;1789692;80;25880;-65
2023/10/06 05:07:45;;;;;;;23.57;11.70;;;;;;;10.28;90.72;101039.45;1789554;80;25558;-65
2023/10/06 05:10:11;;;;;;;20.85;13.32;;;;;;;10.34;90.89;101047.80;1789103;79;28104;-66
2023/10/06 05:12:39;;;;;;;23.30;13.32;;;;;;;10.36;90.95;101053.73;1788270;80;26131;-67
2023/10/06 05:15:17;;;;;;;29.60;14.97;;;;;;;10.35;90.98;101057.54;1788615;80;25665;-65
2023/10/06 05:17:38;;;;;;;22.67;13.60;;;;;;;10.39;91.15;101059.12;1787183;80;25720;-67
2023/10/06 05:20:19;;;;;;;27.00;14.43;;;;;;;10.42;91.20;101063.92;1788335;80;25659;-67
2023/10/06 05:22:43;;;;;;;25.48;14.70;;;;;;;10.45;91.34;101072.82;1787288;80;27461;-65
2023/10/06 05:25:13;;;;;;;34.18;15.03;;;;;;;10.47;91.36;101076.03;1788297;80;25735;-65
2023/10/06 05:27:39;;;;;;;;;;;;;;;10.50;91.58;101076.02;1791778;80;25682;-65
2023/10/06 05:30:13;;;;;;;30.95;15.30;;;;;;;10.51;91.40;101074.94;1789492;79;25651;-65
2023/10/06 05:32:41;;;;;;;24.82;14.50;;;;;;;10.52;91.53;101069.23;1789439;79;25464;-66
2023/10/06 05:35:14;;;;;;;29.63;15.38;;;;;;;10.53;91.73;101072.19;1788608;80;27413;-66
2023/10/06 05:37:39;;;;;;;34.43;15.43;;;;;;;10.59;91.74;101080.51;1789063;80;25658;-66
2023/10/06 05:40:16;;;;;;;32.63;15.68;;;;;;;10.63;91.85;101084.79;1789538;80;25522;-66
2023/10/06 05:42:44;;;;;;;28.70;16.05;;;;;;;10.66;91.92;101089.62;1789655;80;26293;-66
2023/10/06 05:45:18;;;;;;;27.40;16.67;;;;;;;10.70;91.82;101096.05;1789569;80;25376;-66
2023/10/06 05:47:54;;;;;;;29.87;15.85;;;;;;;10.75;92.00;101104.11;1789246;80;28108;-66
2023/10/06 05:50:28;;;;;;;33.80;17.27;;;;;;;10.80;91.87;101099.19;1789622;79;25375;-66
2023/10/06 05:53:12;;;;;;;33.23;16.15;;;;;;;10.86;91.96;101103.98;1789561;80;25387;-65
2023/10/06 05:55:42;;;;;;;33.60;16.35;;;;;;;10.90;92.05;101104.47;1789561;80;26512;-65
2023/10/06 05:58:19;;;;;;;30.25;15.98;;;;;;;10.93;91.93;101106.59;1789572;80;25549;-65
2023/10/06 06:00:52;;;;;;;28.98;16.52;;;;;;;10.98;91.98;101116.00;1789576;80;28043;-65
2023/10/06 06:03:20;;;;;;;30.43;18.25;;;;;;;11.03;91.91;101114.58;1789460;80;25225;-66
2023/10/06 06:05:53;;;;;;;30.48;18.00;;;;;;;11.06;91.38;101120.50;1789567;80;25542;-66
2023/10/06 06:08:21;;;;;;;41.85;18.02;;;;;;;11.07;91.21;101129.69;1789524;80;26294;-66
2023/10/06 06:10:47;;;;;;;36.48;17.92;;;;;;;11.09;91.23;101123.98;1789578;80;25635;-66
2023/10/06 06:13:18;;;;;;;34.78;18.82;;;;;;;11.13;91.72;101131.77;1789646;80;28532;-66
2023/10/06 06:15:44;;;;;;;33.02;18.62;;;;;;;11.17;91.36;101132.25;1789501;80;26032;-66
2023/10/06 06:18:13;;;;;;;36.05;19.35;;;;;;;11.20;91.37;101135.73;1789615;80;25808;-67
2023/10/06 06:20:41;;;;;;;34.10;19.15;;;;;;;11.26;91.84;101137.81;1788687;80;25637;-66
2023/10/06 06:23:15;;;;;;;32.98;19.30;;;;;;;11.35;91.88;101133.89;1788997;80;25495;-66
2023/10/06 06:25:48;;;;;;;37.10;20.00;;;;;;;11.39;91.56;101133.02;1789539;80;27412;-66
2023/10/06 06:28:14;;;;;;;34.13;19.90;;;;;;;11.46;91.91;101142.13;1788367;80;25580;-66
2023/10/06 06:30:42;;;;;;;31.57;18.67;;;;;;;11.51;91.21;101143.41;1789553;80;25405;-66
2023/10/06 06:33:17;;;;;;;35.35;19.02;;;;;;;11.57;91.26;101145.48;1789450;80;25902;-66
2023/10/06 06:35:43;;;;;;;33.55;17.55;;;;;;;11.63;91.06;101149.73;1788826;80;25461;-66
2023/10/06 06:38:12;;;;;;;33.28;17.60;;;;;;;11.68;91.01;101147.48;1789667;80;27374;-67
2023/10/06 06:40:41;;;;;;;30.27;18.02;;;;;;;11.74;90.75;101145.75;1789588;80;25646;-67
2023/10/06 06:43:09;;;;;;;27.93;17.77;;;;;;;11.82;90.51;101144.84;1789689;80;25536;-66
2023/10/06 06:45:40;;;;;;;29.92;17.50;;;;;;;11.88;90.68;101143.63;1789716;80;25447;-67
2023/10/06 06:48:16;;;;;;;30.05;17.80;;;;;;;11.96;91.04;101144.34;1789729;80;25546;-66
2023/10/06 06:50:48;;;;;;;33.78;17.10;;;;;;;12.06;90.58;101137.39;1786972;80;27459;-65
2023/10/06 06:53:13;;;;;;;28.25;16.93;;;;;;;12.13;90.50;101144.58;1789404;80;25433;-66
2023/10/06 06:55:40;;;;;;;25.10;14.95;;;;;;;12.21;90.24;101147.17;1789574;80;25530;-66
2023/10/06 06:58:10;;;;;;;20.50;13.75;;;;;;;12.28;89.59;101150.84;1789552;79;26126;-66
2023/10/06 07:00:40;;;;;;;18.05;11.85;;;;;;;12.33;89.43;101148.84;1789652;80;25442;-66
2023/10/06 07:03:10;;;;;;;17.37;11.28;;;;;;;12.40;89.16;101151.16;1789548;80;28161;-66
2023/10/06 07:05:37;;;;;;;20.55;11.25;;;;;;;12.48;89.11;101143.68;1789562;80;26074;-66
2023/10/06 07:08:07;;;;;;;15.65;10.80;;;;;;;12.55;88.45;101147.36;1789665;79;25608;-66
2023/10/06 07:10:38;;;;;;;16.70;10.58;;;;;;;12.62;88.13;101149.67;1789633;79;26359;-66
2023/10/06 07:13:06;;;;;;;18.27;10.70;;;;;;;12.59;87.15;101146.20;1789638;79;25554;-64
2023/10/06 07:15:33;;;;;;;17.27;10.90;;;;;;;12.66;87.91;101149.30;1789657;79;27829;-65
2023/10/06 07:18:01;;;;;;;17.87;10.30;;;;;;;12.73;88.03;101148.34;1789550;79;25956;-66
2023/10/06 07:20:32;;;;;;;15.75;9.98;;;;;;;12.79;87.35;101156.64;1789612;80;25584;-66
2023/10/06 07:23:01;;;;;;;16.67;9.83;;;;;;;12.77;86.19;101160.22;1789702;80;25873;-66
2023/10/06 07:25:28;;;;;;;14.20;9.45;;;;;;;12.75;86.11;101163.77;1789699;79;25627;-66
2023/10/06 07:27:59;;;;;;;16.62;9.53;;;;;;;12.83;86.74;101171.77;1789625;80;27671;-66
2023/10/06 07:30:34;;;;;;;16.57;9.58;;;;;;;12.89;86.89;101173.29;1789587;79;25626;-66
2023/10/06 07:33:02;;;;;;;17.27;9.50;;;;;;;12.92;85.96;101172.66;1789290;78;25541;-66
2023/10/06 07:35:47;;;;;;;16.60;9.35;;;;;;;12.95;85.87;101175.34;1789697;80;25656;-67
2023/10/06 07:38:13;;;;;;;16.02;10.15;;;;;;;13.00;86.14;101171.16;1788742;79;25748;-66
2023/10/06 07:40:42;;;;;;;19.77;12.20;;;;;;;13.07;85.64;101168.27;1789750;79;27324;-67
2023/10/06 07:43:10;;;;;;;22.45;12.90;;;;;;;13.07;85.16;101172.90;1789587;79;25586;-65
2023/10/06 07:45:38;;;;;;;21.25;12.10;;;;;;;13.07;84.64;101180.48;1789695;79;25385;-65
2023/10/06 07:48:06;;;;;;;20.80;12.73;;;;;;;13.02;84.29;101175.16;1789644;79;25639;-65
2023/10/06 07:50:35;;;;;;;20.15;12.10;;;;;;;13.02;84.17;101175.72;1789677;79;25623;-66
2023/10/06 07:53:06;;;;;;;22.15;12.93;;;;;;;13.00;84.22;101173.87;1789702;80;28093;-67
2023/10/06 07:55:32;;;;;;;21.90;13.35;;;;;;;12.96;83.76;101176.39;1789578;80;25548;-66
2023/10/06 07:58:08;;;;;;;25.25;13.20;;;;;;;12.92;83.21;101175.38;1789622;80;25385;-65
2023/10/06 08:00:38;;;;;;;21.20;13.35;;;;;;;12.79;82.82;101174.29;1789126;80;25564;-65
2023/10/06 08:03:05;;;;;;;23.20;13.60;;;;;;;12.70;83.22;101180.98;1788848;79;25630;-67
2023/10/06 08:05:31;;;;;;;25.32;13.43;;;;;;;12.64;83.39;101180.02;1789674;80;27789;-65
2023/10/06 08:08:00;;;;;;;24.25;13.18;;;;;;;12.56;83.58;101181.51;1789563;80;25598;-66
2023/10/06 08:10:31;;;;;;;26.68;13.85;;;;;;;12.55;83.91;101185.87;1789596;79;25430;-64
2023/10/06 08:13:00;;;;;;;23.62;15.85;;;;;;;12.49;83.52;101177.83;1789615;79;26319;-65
2023/10/06 08:15:32;;;;;;;26.40;16.67;;;;;;;12.42;83.54;101176.63;1789641;80;25392;-65
2023/10/06 08:17:59;;;;;;;23.35;15.90;;;;;;;12.35;83.81;101170.24;1765066;80;28138;-66
2023/10/06 08:20:25;;;;;;;23.70;15.93;;;;;;;12.32;84.08;101173.55;1789355;79;25653;-67
2023/10/06 08:22:53;;;;;;;25.88;16.70;;;;;;;12.28;83.87;101178.77;1789628;80;25428;-66
2023/10/06 08:25:24;;;;;;;26.45;16.23;;;;;;;12.27;84.16;101172.28;1789599;80;25648;-66
2023/10/06 08:27:51;;;;;;;26.73;16.95;;;;;;;12.24;84.39;101181.02;1789584;79;25420;-66
2023/10/06 08:30:19;;;;;;;25.88;16.70;;;;;;;12.19;83.84;101178.39;1789633;80;27309;-66
2023/10/06 08:32:54;;;;;;;28.35;16.37;;;;;;;12.11;83.73;101177.18;1789488;80;26100;-66
2023/10/06 08:35:22;;;;;;;29.10;18.70;;;;;;;12.10;84.37;101175.56;1789615;79;25437;-66
2023/10/06 08:37:52;;;;;;;26.68;17.82;;;;;;;12.14;84.77;101179.30;1789634;79;25620;-66
2023/10/06 08:40:22;;;;;;;27.40;18.00;;;;;;;12.14;84.45;101193.66;1789704;79;25596;-66
2023/10/06 08:42:56;;;;;;;28.00;18.17;;;;;;;12.17;84.60;101195.52;1789670;80;27361;-66
2023/10/06 08:45:32;;;;;;;30.62;18.10;;;;;;;12.18;84.60;101192.52;1789635;80;25341;-66
2023/10/06 08:48:09;;;;;;;30.32;19.00;;;;;;;12.21;84.59;101196.52;1789722;80;25609;-66
2023/10/06 08:50:34;;;;;;;30.52;19.45;;;;;;;12.23;84.59;101194.34;1787966;80;25637;-65
2023/10/06 08:53:09;;;;;;;28.67;17.77;;;;;;;12.28;85.05;101188.82;1789644;79;25389;-66
2023/10/06 08:55:44;;;;;;;26.00;16.82;;;;;;;12.36;85.11;101185.42;1788553;80;27499;-67
2023/10/06 08:58:08;;;;;;;29.75;18.50;;;;;;;12.50;85.44;101182.73;1789169;78;25694;-66
2023/10/06 09:00:37;;;;;;;29.82;18.52;;;;;;;12.60;84.79;101183.89;1789522;80;25649;-66
2023/10/06 09:03:11;;;;;;;31.20;18.50;;;;;;;12.62;84.17;101189.02;1789476;79;26088;-67
2023/10/06 09:05:45;;;;;;;31.35;20.02;;;;;;;12.64;83.93;101179.45;1789720;80;25379;-66
2023/10/06 09:08:17;;;;;;;31.25;19.55;;;;;;;12.64;83.47;101186.25;1789842;79;28226;-67
2023/10/06 09:10:52;;;;;;;33.92;20.05;;;;;;;12.61;83.46;101184.12;1789650;79;25459;-66
2023/10/06 09:13:22;;;;;;;30.82;18.40;;;;;;;12.61;83.75;101178.70;1789714;80;25554;-67
2023/10/06 09:16:11;;;;;;;30.62;19.20;;;;;;;12.73;84.10;101179.56;1789545;80;25566;-66
2023/10/06 09:18:38;;;;;;;27.15;18.80;;;;;;;12.85;83.41;101188.00;1787895;78;25391;-66
2023/10/06 09:21:23;;;;;;;26.27;15.68;;;;;;;12.88;83.64;101171.10;1789039;78;27700;-67
2023/10/06 09:23:50;;;;;;;19.67;13.62;;;;;;;13.10;84.39;101173.66;1788639;78;25747;-66
2023/10/06 09:26:30;;;;;;;20.02;12.73;;;;;;;13.24;83.39;101165.48;1789685;79;25370;-65
2023/10/06 09:29:01;;;;;;;17.17;12.58;;;;;;;13.46;82.53;101164.74;1789607;79;25468;-66
2023/10/06 09:31:44;;;;;;;16.87;12.78;;;;;;;13.67;82.60;101164.27;1788510;78;25544;-67
2023/10/06 09:34:25;;;;;;;20.70;12.93;;;;;;;13.82;82.33;101165.25;1789594;80;27861;-67
2023/10/06 09:36:55;;;;;;;19.15;12.58;;;;;;;13.93;80.75;101161.18;1789497;79;25607;-67
2023/10/06 09:39:35;;;;;;;20.65;12.03;;;;;;;14.03;80.42;101161.48;1765172;80;25482;-67
2023/10/06 09:42:05;;;;;;;18.85;11.83;;;;;;;14.16;81.76;101158.42;1789587;79;25493;-67
2023/10/06 09:44:31;;;;;;;16.70;10.15;;;;;;;14.39;80.82;101158.62;1789244;78;25548;-68
2023/10/06 09:47:01;;;;;;;13.70;9.35;;;;;;;14.59;80.11;101158.40;1789762;80;27887;-68
2023/10/06 09:49:29;;;;;;;13.70;8.08;;;;;;;14.73;79.22;101155.81;1789492;80;25367;-69
2023/10/06 09:52:01;;;;;;;14.20;7.65;;;;;;;14.81;79.13;101156.15;1789598;79;25408;-66
2023/10/06 09:54:29;;;;;;;13.25;8.78;;;;;;;14.96;78.56;101158.42;1789593;79;25980;-66
2023/10/06 09:56:56;;;;;;;11.85;7.78;;;;;;;15.19;78.20;101159.12;1789871;80;25461;-65
2023/10/06 09:59:26;;;;;;;12.73;9.48;;;;;;;15.36;77.75;101158.87;1789621;80;27326;-65
2023/10/06 10:01:56;;;;;;;14.73;7.90;;;;;;;15.59;76.39;101154.07;1789598;80;25678;-66
2023/10/06 10:04:29;;;;;;;12.78;6.28;;;;;;;15.86;76.78;101152.37;1789567;79;25583;-66
2023/10/06 10:06:58;;;;;;;17.35;10.00;;;;;;;16.30;77.25;101157.73;1789649;79;25601;-66
2023/10/06 10:09:28;;;;;;;20.30;10.95;;;;;;;16.74;77.38;101158.92;1789802;80;25433;-66
2023/10/06 10:12:23;;;;;;;16.00;8.00;;;;;;;17.36;75.96;101154.66;1789851;79;28152;-67
2023/10/06 10:15:12;;;;;;;11.70;6.58;;;;;;;17.64;73.82;101147.26;1787162;80;25542;-68
2023/10/06 10:17:55;;;;;;;13.60;5.45;;;;;;;17.86;71.64;101143.34;1787306;80;25576;-70
2023/10/06 10:20:25;;;;;;;13.30;6.12;;;;;;;17.80;70.84;101137.30;1789769;79;25574;-69
2023/10/06 10:23:00;;;;;;;12.00;5.83;;;;;;;17.68;68.96;101140.00;1790008;79;25629;-69
2023/10/06 10:25:30;;;;;;;8.98;5.72;;;;;;;17.68;68.75;101130.42;1789975;80;27364;-70
2023/10/06 10:28:27;;;;;;;9.20;5.12;;;;;;;18.04;69.71;101123.47;1789967;79;25587;-71
2023/10/06 10:30:54;;;;;;;11.85;5.42;;;;;;;18.32;68.77;101121.45;1788231;80;25729;-71
2023/10/06 10:33:24;;;;;;;11.30;5.55;;;;;;;18.50;68.40;101115.98;1765454;80;25868;-71
2023/10/06 10:36:20;;;;;;;9.60;5.12;;;;;;;18.85;68.04;101108.69;1788942;80;25686;-71
2023/10/06 10:39:12;;;;;;;6.72;4.47;;;;;;;19.15;67.98;101107.78;1789724;79;27998;-72
2023/10/06 10:41:41;;;;;;;12.82;5.03;;;;;;;19.90;66.59;101107.73;1728306;82;25671;-70
2023/10/06 10:44:11;;;;;;;9.83;4.92;;;;;;;20.31;64.82;101114.41;1728423;83;25515;-69
2023/10/06 10:46:50;;;;;;;8.85;4.55;;;;;;;20.55;63.64;101113.43;1692696;84;25669;-69
2023/10/06 10:49:22;;;;;;;11.93;4.83;;;;;;;21.19;63.57;101122.30;1728659;83;25694;-69
2023/10/06 10:51:57;;;;;;;8.00;4.40;;;;;;;21.07;60.30;101114.98;1692791;84;27324;-71
2023/10/06 10:54:29;;;;;;;9.68;4.28;;;;;;;20.98;59.86;101116.38;1728386;83;25558;-70
2023/10/06 10:57:02;;;;;;;9.68;4.17;;;;;;;;;;1692766;84;25500;-68
2023/10/06 10:59:26;;;;;;;11.15;4.15;;;;;;;21.44;57.96;101109.65;1692516;83;25530;-70
2023/10/06 11:01:53;;;;;;;9.70;4.37;;;;;;;21.47;57.48;101107.58;1692701;83;25513;-71
2023/10/06 11:04:30;;;;;;;9.05;4.05;;;;;;;21.22;56.43;101102.33;1706409;83;27379;-69
2023/10/06 11:07:04;;;;;;;14.65;4.92;;;;;;;20.99;56.45;101114.61;1710770;83;25505;-69
2023/10/06 11:09:30;;;;;;;9.53;3.90;;;;;;;20.73;56.58;101111.10;1709062;82;26139;-69
2023/10/06 11:12:05;;;;;;;10.03;5.50;;;;;;;20.59;57.06;101105.27;1710830;83;25940;-70
2023/10/06 11:14:36;;;;;;;8.40;4.05;;;;;;;20.25;55.60;101104.86;1710971;83;25719;-71
2023/10/06 11:17:05;;;;;;;8.95;4.78;;;;;;;20.05;57.29;101102.59;1772616;80;27402;-71
2023/10/06 11:19:37;;;;;;;11.57;4.12;;;;;;;19.98;57.29;101107.91;1773382;80;25806;-65
2023/10/06 11:22:37;;;;;;;11.20;5.75;;;;;;;19.86;57.19;101107.41;1773509;80;25387;-66
2023/10/06 11:25:10;;;;;;;9.05;5.33;;;;;;;19.55;57.08;101102.84;1660216;86;25533;-66
2023/10/06 11:27:39;;;;;;;10.68;6.67;;;;;;;19.58;58.69;101100.78;1701802;84;25637;-66
2023/10/06 11:30:15;;;;;;;13.65;4.95;;;;;;;19.71;58.45;101090.52;1701704;84;28245;-66
2023/10/06 11:32:43;;;;;;;14.85;5.53;;;;;;;20.09;58.65;101091.11;1701765;84;25205;-66
2023/10/06 11:35:13;;;;;;;8.68;4.95;;;;;;;20.20;57.16;101086.69;1701681;84;25593;-64
2023/10/06 11:37:44;;;;;;;9.73;4.58;;;;;;;20.44;58.65;101076.06;1701619;84;25591;-61
2023/10/06 11:40:15;;;;;;;9.10;4.47;;;;;;;20.89;57.83;101072.00;1701762;84;25578;-61
2023/10/06 11:42:43;;;;;;;9.43;4.35;;;;;;;21.00;54.57;101051.59;1701750;84;27686;-61